Time;durP1;ratioP1;P1;durP2;ratioP2;P2;SDS_P1;SDS_P2;PMS_P1;PMS_P2;Temp;Humidity;BMP_temperature;BMP_pressure;BME280_temperature;BME280_humidity;BME280_pressure;Samples;Min_cycle;Max_cycle;Signal;HPM_P1;HPM_P2
2023/12/17 00:00:37;;;;;;;0.30;0.30;;;;;;;0.49;97.58;99066.03;5046697;28;20147;-69
2023/12/17 00:03:04;;;;;;;0.30;0.30;;;;;;;-1.52;97.11;98727.22;5047755;28;20554;-68
2023/12/17 00:05:47;;;;;;;0.30;0.30;;;;;;;0.47;96.95;99043.69;5047682;28;20048;-69
2023/12/17 00:08:19;;;;;;;0.30;0.30;;;;;;;0.23;96.03;99006.06;5047985;28;20057;-69
2023/12/17 00:10:50;;;;;;;0.30;0.30;;;;;;;0.11;95.72;99006.22;5048324;28;20123;-69
2023/12/17 00:13:18;;;;;;;0.30;0.30;;;;;;;0.37;95.24;99054.47;5047915;28;20148;-68
2023/12/17 00:15:45;;;;;;;0.30;0.30;;;;;;;0.51;94.19;99066.59;5046086;28;20385;-68
2023/12/17 00:18:12;;;;;;;0.30;0.30;;;;;;;0.41;94.53;99071.94;5047788;28;20057;-69
2023/12/17 00:20:39;;;;;;;0.30;0.30;;;;;;;-0.23;95.17;98994.63;5047473;28;20049;-68
2023/12/17 00:23:06;;;;;;;0.28;0.28;;;;;;;-0.06;97.67;99070.81;5047480;28;20507;-68
2023/12/17 00:25:33;;;;;;;0.30;0.30;;;;;;;-0.04;98.22;99068.66;5047172;28;20439;-69
2023/12/17 00:28:00;;;;;;;0.30;0.30;;;;;;;0.00;97.66;99072.56;5047452;28;20412;-68
2023/12/17 00:30:27;;;;;;;0.30;0.30;;;;;;;-0.19;99.16;99071.22;5047794;28;20060;-69
2023/12/17 00:32:54;;;;;;;0.25;0.25;;;;;;;-0.01;99.36;99074.44;5047177;28;20106;-68
2023/12/17 00:35:21;;;;;;;0.30;0.30;;;;;;;-0.02;97.65;99071.97;5047221;28;20081;-68
2023/12/17 00:37:48;;;;;;;0.30;0.30;;;;;;;0.04;97.30;99068.22;5047070;28;20071;-68
2023/12/17 00:40:14;;;;;;;0.30;0.30;;;;;;;-0.25;96.77;99083.09;5046666;28;20053;-67
2023/12/17 00:42:41;;;;;;;0.20;0.20;;;;;;;-1.52;100.00;98946.22;5046654;28;20523;-67
2023/12/17 00:45:08;;;;;;;0.30;0.30;;;;;;;-0.39;100.00;99070.91;5046973;28;20045;-69
2023/12/17 00:47:35;;;;;;;0.30;0.30;;;;;;;-0.39;98.61;99049.13;5045644;28;20053;-68
2023/12/17 00:50:02;;;;;;;0.30;0.30;;;;;;;-0.10;98.09;99080.59;5045481;28;20136;-68
2023/12/17 00:52:29;;;;;;;0.30;0.30;;;;;;;-0.12;96.86;99093.63;5046962;28;20049;-68
2023/12/17 00:54:56;;;;;;;0.20;0.20;;;;;;;-0.08;96.46;99105.66;5046707;28;20060;-68
2023/12/17 00:57:23;;;;;;;0.30;0.30;;;;;;;-0.42;96.90;99055.06;5045100;28;20045;-68
2023/12/17 00:59:49;;;;;;;0.22;0.22;;;;;;;-0.35;96.67;99093.84;5046672;28;20086;-67
2023/12/17 01:02:16;;;;;;;0.20;0.20;;;;;;;-0.28;96.69;99089.03;5046463;28;20127;-68
2023/12/17 01:04:43;;;;;;;0.30;0.30;;;;;;;-0.24;95.71;99090.19;5046770;28;20052;-67
2023/12/17 01:07:10;;;;;;;0.30;0.30;;;;;;;-0.54;96.56;99084.31;5045170;28;20060;-67
2023/12/17 01:09:36;;;;;;;0.20;0.20;;;;;;;-0.45;97.65;99159.00;5046863;28;20053;-68
2023/12/17 01:12:04;;;;;;;0.30;0.30;;;;;;;-0.61;97.09;99040.09;5045361;28;20052;-68
2023/12/17 01:14:34;;;;;;;0.22;0.22;;;;;;;-0.93;96.55;98976.53;5046086;28;20049;-68
2023/12/17 01:17:03;;;;;;;0.22;0.22;;;;;;;-0.71;96.47;99042.69;5046440;28;20052;-68
2023/12/17 01:19:32;;;;;;;0.30;0.30;;;;;;;-0.32;95.86;99082.44;5046370;28;20152;-68
2023/12/17 01:22:00;;;;;;;0.30;0.30;;;;;;;-0.32;95.61;99075.09;5046234;28;20068;-67
2023/12/17 01:24:26;;;;;;;0.30;0.30;;;;;;;-0.33;96.60;99080.78;5045953;28;20470;-67
2023/12/17 01:26:53;;;;;;;0.28;0.28;;;;;;;-0.28;96.03;99083.59;5046123;28;20045;-67
2023/12/17 01:29:20;;;;;;;0.30;0.30;;;;;;;-0.25;93.69;99061.28;5044864;28;20220;-68
2023/12/17 01:31:47;;;;;;;0.30;0.30;;;;;;;-0.30;94.09;99083.03;5046278;28;20130;-69
2023/12/17 01:34:14;;;;;;;0.30;0.30;;;;;;;-0.40;94.27;99059.22;5045939;28;20060;-68
2023/12/17 01:36:41;;;;;;;0.30;0.30;;;;;;;-0.33;96.18;99091.69;5044713;28;20531;-67
2023/12/17 01:39:09;;;;;;;0.20;0.20;;;;;;;-0.50;95.75;99086.28;5044547;28;20052;-67
2023/12/17 01:41:37;;;;;;;0.30;0.30;;;;;;;-0.64;98.11;99078.69;5045775;28;20051;-68
2023/12/17 01:44:04;;;;;;;0.30;0.30;;;;;;;-0.79;98.27;99038.47;5046211;28;20049;-67
2023/12/17 01:46:31;;;;;;;0.30;0.30;;;;;;;-0.97;96.30;98975.34;5045928;28;20494;-68
2023/12/17 01:48:59;;;;;;;0.30;0.30;;;;;;;-0.35;96.27;99082.97;5045818;28;20061;-68
2023/12/17 01:51:27;;;;;;;0.20;0.20;;;;;;;-0.27;96.78;99090.69;5045714;28;20061;-67
2023/12/17 01:53:54;;;;;;;0.30;0.30;;;;;;;-0.33;96.60;99092.50;5045762;28;20055;-67
2023/12/17 01:56:22;;;;;;;0.30;0.30;;;;;;;-0.45;97.14;99083.63;5045371;28;20052;-67
2023/12/17 01:58:48;;;;;;;0.30;0.30;;;;;;;-0.23;95.39;99091.81;5044892;28;20447;-68
2023/12/17 02:01:15;;;;;;;0.30;0.30;;;;;;;-0.25;94.25;99085.81;5045222;28;20057;-68
2023/12/17 02:03:43;;;;;;;0.30;0.30;;;;;;;-0.25;94.87;99081.19;5044251;28;20128;-68
2023/12/17 02:06:10;;;;;;;0.30;0.30;;;;;;;-0.38;95.26;99078.00;5045049;28;20539;-68
2023/12/17 02:08:37;;;;;;;0.20;0.20;;;;;;;-0.68;95.35;99045.72;5044979;28;20092;-68
2023/12/17 02:11:04;;;;;;;0.30;0.30;;;;;;;-0.31;94.89;99105.88;5045574;28;20056;-68
2023/12/17 02:13:32;;;;;;;0.25;0.25;;;;;;;-0.54;94.77;99079.66;5045549;28;20080;-68
2023/12/17 02:15:58;;;;;;;0.30;0.30;;;;;;;-0.93;94.66;99026.28;5045732;28;20048;-68
2023/12/17 02:18:25;;;;;;;0.30;0.30;;;;;;;-0.43;94.10;99086.09;5045302;28;20136;-67
2023/12/17 02:20:53;;;;;;;0.20;0.20;;;;;;;-0.84;94.21;99029.41;5043881;28;20508;-68
2023/12/17 02:23:21;;;;;;;0.30;0.30;;;;;;;-0.60;94.77;99079.88;5045272;28;20049;-67
2023/12/17 02:25:47;;;;;;;0.20;0.20;;;;;;;-0.56;94.87;99073.66;5045110;28;20124;-68
2023/12/17 02:28:14;;;;;;;0.20;0.20;;;;;;;-0.61;93.99;99073.59;5045144;28;20423;-67
2023/12/17 02:30:41;;;;;;;0.30;0.30;;;;;;;-0.95;93.75;99027.63;5044733;28;20116;-67
2023/12/17 02:33:08;;;;;;;0.22;0.22;;;;;;;-0.80;94.17;99028.66;5044849;28;20444;-68
2023/12/17 02:35:35;;;;;;;0.30;0.30;;;;;;;-1.02;94.29;99049.53;5044372;28;20469;-67
2023/12/17 02:38:02;;;;;;;0.20;0.20;;;;;;;-1.23;94.88;98992.38;5045310;28;20049;-67
2023/12/17 02:40:29;;;;;;;0.20;0.20;;;;;;;-0.82;93.74;99043.59;5044840;28;20468;-67
2023/12/17 02:42:56;;;;;;;0.20;0.20;;;;;;;-0.82;93.62;99059.94;5044840;28;20048;-68
2023/12/17 02:45:22;;;;;;;0.22;0.22;;;;;;;-1.16;94.26;98995.72;5044133;28;21329;-67
2023/12/17 02:47:49;;;;;;;0.30;0.30;;;;;;;-0.82;93.98;99065.38;5045178;28;20342;-66
2023/12/17 02:50:16;;;;;;;0.20;0.20;;;;;;;-0.65;93.28;99063.44;5044296;28;20665;-68
2023/12/17 02:52:43;;;;;;;0.30;0.30;;;;;;;-1.28;93.27;98995.00;5044638;28;20065;-67
2023/12/17 02:55:10;;;;;;;0.25;0.25;;;;;;;-0.60;92.54;99063.53;5042842;28;20068;-68
2023/12/17 02:57:37;;;;;;;0.30;0.30;;;;;;;-0.66;92.64;99064.50;5044550;28;20045;-67
2023/12/17 03:00:07;;;;;;;0.20;0.20;;;;;;;-1.11;93.20;98995.81;5043160;28;20084;-67
2023/12/17 03:02:34;;;;;;;0.20;0.20;;;;;;;-0.64;94.35;99062.38;5044822;28;20152;-67
2023/12/17 03:05:01;;;;;;;0.20;0.20;;;;;;;-0.61;93.25;99070.03;5044569;28;20060;-67
2023/12/17 03:07:28;;;;;;;0.20;0.20;;;;;;;-0.61;93.00;99061.88;5044141;28;20057;-68
2023/12/17 03:09:55;;;;;;;0.20;0.20;;;;;;;-0.57;93.58;99063.84;5043018;28;20142;-67
2023/12/17 03:12:22;;;;;;;0.30;0.30;;;;;;;-0.85;94.07;99027.75;5042861;28;20503;-67
2023/12/17 03:14:49;;;;;;;0.20;0.20;;;;;;;-0.62;94.15;99071.13;5043852;28;20057;-68
2023/12/17 03:17:15;;;;;;;0.20;0.20;;;;;;;-0.65;93.29;99068.91;5042558;28;20057;-69
2023/12/17 03:19:42;;;;;;;0.30;0.30;;;;;;;-0.67;93.60;99073.75;5043815;28;20056;-67
2023/12/17 03:22:09;;;;;;;0.30;0.30;;;;;;;-0.69;93.14;99074.00;5043971;28;20493;-67
2023/12/17 03:24:36;;;;;;;0.30;0.30;;;;;;;-1.19;93.30;99007.09;5044019;28;20045;-67
2023/12/17 03:27:03;;;;;;;0.30;0.30;;;;;;;-1.12;92.66;99000.41;5042905;28;20052;-67
2023/12/17 03:29:29;;;;;;;0.20;0.20;;;;;;;-0.75;91.67;99063.28;5043969;28;20141;-66
2023/12/17 03:31:57;;;;;;;0.28;0.28;;;;;;;-0.81;92.03;99053.41;5042560;28;20048;-67
2023/12/17 03:34:26;;;;;;;0.20;0.20;;;;;;;-1.28;92.88;99024.91;5043109;28;20045;-68
2023/12/17 03:36:53;;;;;;;0.20;0.20;;;;;;;-0.96;92.37;99075.72;5044054;28;20605;-68
2023/12/17 03:39:20;;;;;;;0.20;0.20;;;;;;;-1.28;92.71;99011.31;5042677;28;20052;-67
2023/12/17 03:41:47;;;;;;;0.20;0.20;;;;;;;-1.77;93.58;98991.97;5043571;28;20049;-68
2023/12/17 03:44:14;;;;;;;0.30;0.30;;;;;;;-1.26;94.27;99079.81;5034735;28;20068;-67
2023/12/17 03:46:40;;;;;;;0.20;0.20;;;;;;;-1.28;94.88;99082.78;5042175;28;20128;-67
2023/12/17 03:49:07;;;;;;;0.20;0.20;;;;;;;-1.57;94.22;99029.53;5043673;28;20080;-66
2023/12/17 03:51:34;;;;;;;0.20;0.20;;;;;;;-1.15;94.09;99093.34;5043606;28;20045;-68
2023/12/17 03:54:01;;;;;;;0.20;0.20;;;;;;;-1.12;94.01;99081.19;5044478;28;20049;-67
2023/12/17 03:56:28;;;;;;;0.20;0.20;;;;;;;-1.20;93.82;99101.41;5043664;28;20067;-66
2023/12/17 03:58:55;;;;;;;0.20;0.20;;;;;;;-1.48;95.58;99131.34;5043665;28;20049;-67
2023/12/17 04:01:21;;;;;;;0.20;0.20;;;;;;;-1.41;95.84;99109.44;5043607;28;20566;-68
2023/12/17 04:03:48;;;;;;;0.25;0.25;;;;;;;-1.64;95.19;99054.13;5043500;28;20059;-67
2023/12/17 04:06:15;;;;;;;0.20;0.20;;;;;;;-1.34;94.74;99104.72;5042135;28;20436;-68
2023/12/17 04:08:42;;;;;;;0.20;0.20;;;;;;;-1.41;94.71;99109.44;5041746;28;20057;-68
2023/12/17 04:11:09;;;;;;;0.20;0.20;;;;;;;-1.45;95.28;99092.00;5043160;28;20565;-68
2023/12/17 04:13:35;;;;;;;0.22;0.22;;;;;;;-1.73;95.02;99047.47;5043696;28;20064;-68
2023/12/17 04:16:02;;;;;;;0.20;0.20;;;;;;;-1.32;94.92;99118.84;5043725;28;20057;-68
2023/12/17 04:18:29;;;;;;;0.20;0.20;;;;;;;-1.22;94.97;99113.63;5042115;28;20056;-67
2023/12/17 04:20:56;;;;;;;0.30;0.30;;;;;;;-1.17;94.54;99116.44;5043255;28;20527;-67
2023/12/17 04:23:23;;;;;;;0.30;0.30;;;;;;;-1.22;94.20;99127.22;5043530;28;20053;-67
2023/12/17 04:25:50;;;;;;;0.20;0.20;;;;;;;-1.18;94.50;99115.59;5043537;28;20233;-68
2023/12/17 04:28:16;;;;;;;0.20;0.20;;;;;;;-1.30;93.03;99094.97;5043722;28;20063;-68
2023/12/17 04:30:43;;;;;;;0.20;0.20;;;;;;;-1.28;93.96;99122.75;5042138;28;20048;-68
2023/12/17 04:33:10;;;;;;;0.20;0.20;;;;;;;-1.26;93.97;99117.88;5043304;28;20504;-68
2023/12/17 04:35:37;;;;;;;0.25;0.25;;;;;;;-1.47;94.25;99115.88;5043595;28;20041;-67
2023/12/17 04:38:04;;;;;;;0.20;0.20;;;;;;;-1.67;95.70;99111.69;5043486;28;20049;-68
2023/12/17 04:40:30;;;;;;;0.20;0.20;;;;;;;-2.09;95.33;99055.97;5041953;28;20453;-68
2023/12/17 04:42:57;;;;;;;0.20;0.20;;;;;;;-1.95;96.45;99095.34;5043351;28;20049;-68
2023/12/17 04:45:24;;;;;;;0.20;0.20;;;;;;;-1.71;96.50;99104.25;5042509;28;20067;-67
2023/12/17 04:47:51;;;;;;;0.20;0.20;;;;;;;-2.18;94.65;99010.44;5047273;28;20057;-67
2023/12/17 04:50:18;;;;;;;0.20;0.20;;;;;;;-2.34;94.48;99020.13;5046730;28;20487;-67
2023/12/17 04:52:45;;;;;;;0.20;0.20;;;;;;;-1.92;94.83;99069.59;5046745;28;20049;-68
2023/12/17 04:55:12;;;;;;;0.30;0.30;;;;;;;-2.12;94.96;99023.84;5045642;28;20060;-65
2023/12/17 04:57:39;;;;;;;0.25;0.25;;;;;;;-1.69;94.47;99102.09;5046505;28;20053;-67
2023/12/17 05:00:08;;;;;;;0.28;0.28;;;;;;;-1.68;94.97;99104.59;5046726;28;20044;-67
2023/12/17 05:02:34;;;;;;;0.20;0.20;;;;;;;-1.64;94.85;99116.63;5045213;28;20056;-67
2023/12/17 05:05:02;;;;;;;0.20;0.20;;;;;;;-1.58;94.53;99104.78;5046580;28;20094;-67
2023/12/17 05:07:28;;;;;;;0.20;0.20;;;;;;;-1.50;93.54;99116.34;5046198;28;20619;-67
2023/12/17 05:09:57;;;;;;;0.30;0.30;;;;;;;-2.46;92.80;98969.69;5046620;28;20049;-68
2023/12/17 05:12:23;;;;;;;0.20;0.20;;;;;;;-1.69;94.38;99108.38;5045003;28;20486;-67
2023/12/17 05:14:50;;;;;;;0.20;0.20;;;;;;;-1.68;93.75;99093.75;5045013;28;20055;-66
2023/12/17 05:17:17;;;;;;;0.20;0.20;;;;;;;-1.85;92.21;99059.44;5046295;28;20079;-67
2023/12/17 05:19:44;;;;;;;0.30;0.30;;;;;;;-2.09;92.73;99042.41;5046158;28;20044;-69
2023/12/17 05:22:11;;;;;;;0.20;0.20;;;;;;;-2.30;93.16;99029.47;5044958;28;20059;-68
2023/12/17 05:24:38;;;;;;;0.20;0.20;;;;;;;-1.68;93.71;99131.78;5044889;28;20056;-67
2023/12/17 05:27:04;;;;;;;0.30;0.30;;;;;;;-1.93;93.90;99095.91;5045936;28;20049;-68
2023/12/17 05:29:31;;;;;;;0.20;0.20;;;;;;;-2.08;93.31;99045.91;5046076;28;20073;-66
2023/12/17 05:31:58;;;;;;;0.28;0.28;;;;;;;-1.60;93.39;99119.69;5046610;28;20067;-66
2023/12/17 05:34:25;;;;;;;0.20;0.20;;;;;;;-2.14;93.06;99039.56;5046323;28;20057;-66
2023/12/17 05:36:52;;;;;;;0.22;0.22;;;;;;;-1.68;93.87;99144.53;5045644;28;20049;-67
2023/12/17 05:39:19;;;;;;;0.20;0.20;;;;;;;-1.72;93.70;99133.31;5046392;28;20072;-67
2023/12/17 05:41:45;;;;;;;0.20;0.20;;;;;;;-2.10;93.94;99095.03;5045167;28;20060;-68
2023/12/17 05:44:12;;;;;;;0.20;0.20;;;;;;;-1.78;94.55;99142.41;5044019;28;20064;-70
2023/12/17 05:46:39;;;;;;;0.20;0.20;;;;;;;-1.94;95.02;99126.88;5045797;28;20124;-68
2023/12/17 05:49:06;;;;;;;0.20;0.20;;;;;;;-1.80;95.59;99127.41;5044113;28;20049;-68
2023/12/17 05:51:33;;;;;;;0.20;0.20;;;;;;;-1.66;95.18;99128.81;5045548;28;20083;-67
2023/12/17 05:54:00;;;;;;;0.20;0.20;;;;;;;-1.75;94.25;99112.06;5043415;28;20045;-67
2023/12/17 05:56:27;;;;;;;0.30;0.30;;;;;;;-1.63;94.22;99129.13;5044389;28;20049;-66
2023/12/17 05:58:53;;;;;;;0.20;0.20;;;;;;;-1.55;93.17;99130.66;5044095;28;20052;-67
2023/12/17 06:01:20;;;;;;;0.20;0.20;;;;;;;-1.47;92.83;99126.72;5044831;28;20084;-68
2023/12/17 06:03:47;;;;;;;0.30;0.30;;;;;;;-1.42;92.92;99132.28;5044518;28;20132;-68
2023/12/17 06:06:15;;;;;;;0.30;0.30;;;;;;;-1.88;92.29;99065.34;5044681;28;20135;-68
2023/12/17 06:08:42;;;;;;;0.20;0.20;;;;;;;-1.42;91.99;99118.69;5045231;28;20144;-69
2023/12/17 06:11:16;;;;;;;0.20;0.20;;;;;;;-1.39;91.87;99150.81;5044097;28;20163;-69
2023/12/17 06:13:43;;;;;;;0.30;0.30;;;;;;;-1.70;91.84;99101.28;5044405;28;20079;-66
2023/12/17 06:16:10;;;;;;;0.20;0.20;;;;;;;-1.61;91.55;99093.56;5045853;28;20147;-68
2023/12/17 06:18:38;;;;;;;0.25;0.25;;;;;;;-1.62;91.12;99070.19;5040745;28;20055;-67
2023/12/17 06:21:05;;;;;;;0.20;0.20;;;;;;;-1.06;91.51;99148.16;5035171;28;20060;-69
2023/12/17 06:23:32;;;;;;;0.20;0.20;;;;;;;-3.46;91.24;98756.97;5036040;28;20067;-68
2023/12/17 06:26:00;;;;;;;0.20;0.20;;;;;;;-1.09;91.86;99113.31;5043605;28;20144;-68
2023/12/17 06:28:27;;;;;;;0.20;0.20;;;;;;;-0.78;90.95;99153.56;5044963;28;20060;-68
2023/12/17 06:30:54;;;;;;;0.30;0.30;;;;;;;-0.75;91.23;99136.75;5044551;28;20057;-68
2023/12/17 06:33:21;;;;;;;0.20;0.20;;;;;;;-0.92;90.31;99092.41;5044167;28;20056;-68
2023/12/17 06:35:48;;;;;;;0.30;0.30;;;;;;;-0.51;90.26;99149.13;5043322;28;20138;-69
2023/12/17 06:38:15;;;;;;;0.22;0.22;;;;;;;-0.50;90.21;99139.88;5043278;28;20057;-68
2023/12/17 06:40:41;;;;;;;0.25;0.25;;;;;;;-0.61;90.11;99105.41;5044492;28;20049;-68
2023/12/17 06:43:08;;;;;;;0.30;0.30;;;;;;;-0.24;89.71;99144.66;5043013;28;20068;-70
2023/12/17 06:45:35;;;;;;;0.20;0.20;;;;;;;-0.19;90.40;99115.59;5044578;28;20049;-68
2023/12/17 06:48:02;;;;;;;0.30;0.30;;;;;;;0.14;89.68;99150.09;5042987;28;20084;-67
2023/12/17 06:50:29;;;;;;;0.20;0.20;;;;;;;-0.48;89.28;99017.97;5044684;28;20558;-69
2023/12/17 06:52:55;;;;;;;0.30;0.30;;;;;;;-0.17;89.34;99052.69;5044754;28;20053;-68
2023/12/17 06:55:22;;;;;;;0.30;0.30;;;;;;;0.46;87.45;99133.91;5044360;28;20061;-69
2023/12/17 06:57:49;;;;;;;0.28;0.28;;;;;;;0.09;87.57;99041.06;5044790;28;20049;-68
2023/12/17 07:00:16;;;;;;;0.30;0.30;;;;;;;0.14;85.86;99043.84;5044060;28;20057;-68
2023/12/17 07:02:44;;;;;;;0.30;0.30;;;;;;;0.93;86.10;99152.13;5044682;28;20071;-68
2023/12/17 07:05:11;;;;;;;0.30;0.30;;;;;;;1.10;85.92;99150.16;5042535;28;20056;-67
2023/12/17 07:07:38;;;;;;;0.30;0.30;;;;;;;0.58;83.22;99045.44;5042622;28;20107;-69
2023/12/17 07:10:07;;;;;;;0.30;0.30;;;;;;;1.15;83.53;99128.38;5042901;28;20049;-68
2023/12/17 07:12:33;;;;;;;0.30;0.30;;;;;;;0.80;83.27;99065.28;5044338;28;20057;-69
2023/12/17 07:15:00;;;;;;;0.30;0.30;;;;;;;1.49;83.61;99140.69;5043779;28;20127;-68
2023/12/17 07:17:27;;;;;;;0.30;0.30;;;;;;;1.67;83.00;99146.81;5043874;28;20064;-68
2023/12/17 07:19:54;;;;;;;0.30;0.30;;;;;;;1.82;82.42;99139.53;5044260;28;20487;-68
2023/12/17 07:22:22;;;;;;;0.40;0.40;;;;;;;1.72;81.86;99125.84;5043877;28;20110;-68
2023/12/17 07:24:50;;;;;;;0.30;0.30;;;;;;;1.94;81.16;99103.84;5044384;28;20818;-67
2023/12/17 07:27:16;;;;;;;0.30;0.30;;;;;;;2.26;79.54;99143.63;5041912;28;20044;-67
2023/12/17 07:29:43;;;;;;;0.30;0.30;;;;;;;2.33;79.01;99146.13;5043902;28;20059;-67
2023/12/17 07:32:10;;;;;;;0.30;0.30;;;;;;;2.40;79.70;99136.59;5043896;28;20055;-68
2023/12/17 07:34:38;;;;;;;0.35;0.35;;;;;;;2.25;79.14;99094.69;5042123;28;20508;-66
2023/12/17 07:37:05;;;;;;;0.30;0.30;;;;;;;1.90;79.29;99004.38;5044119;28;20365;-69
2023/12/17 07:39:32;;;;;;;0.30;0.30;;;;;;;2.85;78.71;99135.94;5043612;28;20045;-69
2023/12/17 07:41:59;;;;;;;0.30;0.30;;;;;;;2.94;77.61;99131.63;5042452;28;20530;-67
2023/12/17 07:44:27;;;;;;;0.30;0.30;;;;;;;3.12;77.11;99139.31;5043827;28;20145;-68
2023/12/17 07:46:53;;;;;;;0.30;0.30;;;;;;;3.18;77.59;99108.09;5042176;28;20140;-69
2023/12/17 07:49:20;;;;;;;0.40;0.40;;;;;;;3.45;77.60;99144.25;5042235;28;20065;-67
2023/12/17 07:51:48;;;;;;;0.40;0.40;;;;;;;3.65;76.30;99152.47;5043646;28;20053;-67
2023/12/17 07:54:16;;;;;;;0.40;0.40;;;;;;;3.68;75.24;99135.53;5043733;28;20144;-68
2023/12/17 07:56:43;;;;;;;0.40;0.40;;;;;;;3.75;75.49;99130.56;5043640;28;20151;-67
2023/12/17 07:59:10;;;;;;;0.40;0.40;;;;;;;3.88;75.32;99127.28;5043750;28;20404;-69
2023/12/17 08:01:36;;;;;;;0.40;0.40;;;;;;;4.12;75.05;99133.81;5042400;28;20060;-69
2023/12/17 08:04:03;;;;;;;0.40;0.40;;;;;;;3.61;73.89;99043.69;5043697;28;20124;-69
2023/12/17 08:06:30;;;;;;;0.50;0.50;;;;;;;4.29;74.66;99134.31;5042268;28;20491;-69
2023/12/17 08:09:01;;;;;;;0.47;0.47;;;;;;;4.16;75.06;99085.53;5042190;28;20053;-67
2023/12/17 08:11:28;;;;;;;0.43;0.43;;;;;;;4.64;74.55;99125.97;5042505;28;20558;-68
2023/12/17 08:13:55;;;;;;;0.50;0.50;;;;;;;4.71;72.14;99125.63;5042327;28;20088;-67
2023/12/17 08:16:21;;;;;;;0.40;0.40;;;;;;;4.13;70.35;99019.44;5044125;28;20064;-67
2023/12/17 08:18:48;;;;;;;0.40;0.40;;;;;;;4.33;69.97;99066.78;5043838;28;20064;-68
2023/12/17 08:21:15;;;;;;;0.50;0.50;;;;;;;4.49;72.21;99123.25;5045929;28;20084;-68
2023/12/17 08:23:42;;;;;;;0.50;0.50;;;;;;;4.23;71.59;99052.31;5045854;28;20433;-68
2023/12/17 08:26:10;;;;;;;0.40;0.40;;;;;;;4.62;71.85;99089.72;5047810;28;20052;-68
2023/12/17 08:28:37;;;;;;;0.50;0.50;;;;;;;4.77;71.93;99069.63;5046951;28;20056;-67
2023/12/17 08:31:09;;;;;;;0.40;0.40;;;;;;;5.24;70.78;99102.81;5047272;28;20140;-66
2023/12/17 08:33:37;;;;;;;0.50;0.50;;;;;;;5.25;70.10;99107.19;5047024;28;20140;-68
2023/12/17 08:36:04;;;;;;;0.50;0.50;;;;;;;4.88;70.26;99032.75;5045650;28;20045;-68
2023/12/17 08:38:31;;;;;;;0.50;0.50;;;;;;;5.41;70.51;99103.22;5047287;28;20156;-68
2023/12/17 08:40:58;;;;;;;0.50;0.50;;;;;;;5.29;70.43;99055.25;5045979;28;20430;-68
2023/12/17 08:43:25;;;;;;;0.50;0.50;;;;;;;5.88;69.81;99094.34;5045914;28;20053;-68
2023/12/17 08:45:52;;;;;;;0.55;0.55;;;;;;;6.06;69.82;99082.59;5046693;28;20148;-68
2023/12/17 08:48:19;;;;;;;0.50;0.50;;;;;;;6.29;67.61;99087.28;5045290;28;20451;-66
2023/12/17 08:50:46;;;;;;;0.60;0.60;;;;;;;6.33;67.21;99082.84;5045583;28;20045;-65
2023/12/17 08:53:13;;;;;;;0.60;0.60;;;;;;;6.41;67.18;99051.91;5047249;28;20136;-66
2023/12/17 08:55:39;;;;;;;0.60;0.60;;;;;;;6.66;63.94;99076.34;5047261;28;20057;-67
2023/12/17 08:58:06;;;;;;;0.68;0.68;;;;;;;6.69;65.03;99059.25;5046973;28;20056;-67
2023/12/17 09:00:33;;;;;;;0.60;0.60;;;;;;;6.83;65.39;99053.84;5047214;28;20060;-68
2023/12/17 09:02:59;;;;;;;0.60;0.60;;;;;;;6.99;65.71;99052.47;5047420;28;20045;-68
2023/12/17 09:05:26;;;;;;;0.60;0.60;;;;;;;6.79;63.34;99004.03;5047024;28;20163;-67
2023/12/17 09:07:53;;;;;;;0.60;0.60;;;;;;;6.80;63.78;98982.78;5046784;28;20116;-67
2023/12/17 09:10:23;;;;;;;0.60;0.60;;;;;;;7.35;63.58;99050.81;5046872;28;20179;-69
2023/12/17 09:12:51;;;;;;;0.60;0.60;;;;;;;7.16;64.12;99026.03;5046617;28;20044;-66
2023/12/17 09:15:18;;;;;;;0.60;0.60;;;;;;;7.22;62.96;99024.81;5046746;28;20045;-68
2023/12/17 09:17:45;;;;;;;0.70;0.70;;;;;;;7.30;63.31;99046.19;5045398;28;20056;-67
2023/12/17 09:20:13;;;;;;;0.60;0.60;;;;;;;7.40;63.55;99036.94;5046323;28;20147;-68
2023/12/17 09:22:40;;;;;;;0.70;0.70;;;;;;;7.22;63.29;98982.69;5045193;28;20674;-68
2023/12/17 09:25:08;;;;;;;0.70;0.70;;;;;;;7.44;63.37;99033.31;5046300;28;20045;-68
2023/12/17 09:27:35;;;;;;;0.68;0.68;;;;;;;7.76;63.22;99039.91;5045987;28;20093;-67
2023/12/17 09:30:02;;;;;;;0.70;0.70;;;;;;;7.94;61.31;99039.00;5046317;28;20051;-68
2023/12/17 09:32:30;;;;;;;0.68;0.68;;;;;;;8.05;60.91;99037.69;5045273;28;20053;-67
2023/12/17 09:34:56;;;;;;;0.80;0.80;;;;;;;8.24;60.73;99035.69;5046539;28;20055;-67
2023/12/17 09:37:23;;;;;;;0.70;0.70;;;;;;;8.32;58.86;99016.47;5046242;28;20056;-69
2023/12/17 09:39:50;;;;;;;0.70;0.70;;;;;;;7.64;55.56;98878.47;5044881;28;20056;-67
2023/12/17 09:42:19;;;;;;;0.80;0.80;;;;;;;8.51;55.67;99019.94;5046187;28;20059;-68
2023/12/17 09:44:46;;;;;;;0.70;0.70;;;;;;;8.46;55.02;99011.75;5046719;28;20041;-69
2023/12/17 09:47:13;;;;;;;0.70;0.70;;;;;;;8.38;54.73;98992.31;5046426;28;20118;-68
2023/12/17 09:49:40;;;;;;;0.70;0.70;;;;;;;8.40;54.28;98999.19;5045748;28;20049;-68
2023/12/17 09:52:11;;;;;;;0.70;0.70;;;;;;;8.43;55.22;99006.03;5044152;28;20063;-68
2023/12/17 09:54:39;;;;;;;0.70;0.70;;;;;;;8.54;53.42;98999.16;5046179;28;20052;-68
2023/12/17 09:57:09;;;;;;;0.70;0.70;;;;;;;7.90;53.34;98875.19;5045481;28;20069;-67
2023/12/17 09:59:36;;;;;;;0.70;0.70;;;;;;;8.56;54.76;99000.50;5043965;28;20059;-67
2023/12/17 10:02:02;;;;;;;0.70;0.70;;;;;;;8.52;54.24;98988.41;5045941;28;20571;-68
2023/12/17 10:04:29;;;;;;;0.70;0.70;;;;;;;8.45;54.37;98987.22;5045926;28;20044;-66
2023/12/17 10:06:56;;;;;;;0.70;0.70;;;;;;;8.43;54.24;98989.47;5045842;28;20071;-68
2023/12/17 10:09:23;;;;;;;0.68;0.68;;;;;;;8.56;54.02;98994.16;5045119;28;20069;-67
2023/12/17 10:11:50;;;;;;;0.70;0.70;;;;;;;8.31;54.46;98992.75;5043786;28;20136;-68
2023/12/17 10:14:24;;;;;;;0.60;0.60;;;;;;;8.55;54.74;98998.06;5044804;28;20088;-68
2023/12/17 10:16:51;;;;;;;0.70;0.70;;;;;;;8.38;54.31;98960.00;5045038;28;20503;-68
2023/12/17 10:19:18;;;;;;;0.70;0.70;;;;;;;8.72;54.12;98999.03;5045141;28;20538;-67
2023/12/17 10:21:46;;;;;;;0.80;0.80;;;;;;;8.68;52.95;98975.09;5045083;28;20129;-67
2023/12/17 10:24:13;;;;;;;0.70;0.70;;;;;;;8.81;52.25;98991.63;5044676;28;20057;-66
2023/12/17 10:26:48;;;;;;;0.80;0.80;;;;;;;8.86;53.25;98983.25;5043726;28;20482;-66
2023/12/17 10:29:16;;;;;;;0.70;0.70;;;;;;;8.29;51.55;98912.19;5045191;28;20060;-67
2023/12/17 10:31:44;;;;;;;0.70;0.70;;;;;;;8.69;50.42;98946.34;5045432;28;20057;-66
2023/12/17 10:34:20;;;;;;;0.70;0.70;;;;;;;8.95;50.92;98975.00;5045143;28;20059;-65
2023/12/17 10:36:48;;;;;;;0.70;0.70;;;;;;;9.09;50.58;98961.94;5042995;28;20243;-67
2023/12/17 10:39:16;;;;;;;0.80;0.80;;;;;;;9.06;49.44;98965.34;5043592;28;20060;-67
2023/12/17 10:41:43;;;;;;;0.70;0.70;;;;;;;9.23;49.74;98971.81;5044782;28;20049;-66
2023/12/17 10:44:15;;;;;;;0.70;0.70;;;;;;;9.35;48.86;98957.41;5044875;28;20136;-66
2023/12/17 10:46:43;;;;;;;0.80;0.80;;;;;;;9.51;50.26;98955.06;5044673;28;20084;-67
2023/12/17 10:49:11;;;;;;;0.70;0.70;;;;;;;9.30;49.80;98905.00;5044497;28;20049;-67
2023/12/17 10:51:40;;;;;;;0.80;0.80;;;;;;;9.70;48.57;98953.72;5044545;28;20199;-66
2023/12/17 10:54:07;;;;;;;0.70;0.70;;;;;;;9.56;47.97;98947.47;5043079;28;20053;-67
2023/12/17 10:56:56;;;;;;;0.70;0.70;;;;;;;9.72;46.86;98942.34;5044906;28;20064;-67
2023/12/17 10:59:30;;;;;;;0.70;0.70;;;;;;;9.26;46.86;98886.59;5043202;28;20068;-66
2023/12/17 11:02:08;;;;;;;0.77;0.77;;;;;;;9.63;45.94;98925.69;5044789;28;20068;-67
2023/12/17 11:04:35;;;;;;;0.77;0.77;;;;;;;9.71;46.67;98922.13;5043370;28;20048;-67
2023/12/17 11:07:02;;;;;;;0.80;0.80;;;;;;;9.82;46.49;98917.13;5044973;28;20053;-67
2023/12/17 11:09:29;;;;;;;0.80;0.80;;;;;;;9.51;47.00;98872.91;5044308;28;20436;-68
2023/12/17 11:11:56;;;;;;;0.80;0.80;;;;;;;9.80;47.19;98909.13;5044560;28;20056;-67
2023/12/17 11:14:23;;;;;;;0.80;0.80;;;;;;;9.56;46.90;98897.66;5044746;28;20057;-69
2023/12/17 11:16:52;;;;;;;0.75;0.75;;;;;;;9.59;46.74;98872.13;5044733;28;20137;-68
2023/12/17 11:19:19;;;;;;;0.80;0.80;;;;;;;9.94;46.68;98907.06;5044066;28;20511;-68
2023/12/17 11:21:46;;;;;;;0.73;0.73;;;;;;;10.04;45.58;98909.56;5044345;28;20049;-68
2023/12/17 11:24:13;;;;;;;0.70;0.70;;;;;;;9.97;46.16;98900.09;5043924;28;20097;-67
2023/12/17 11:26:41;;;;;;;0.80;0.80;;;;;;;9.95;45.18;98905.97;5044563;28;20059;-68
2023/12/17 11:29:40;;;;;;;0.80;0.80;;;;;;;10.07;45.26;98913.66;5044141;28;20533;-68
2023/12/17 11:32:08;;;;;;;0.80;0.80;;;;;;;10.12;44.89;98911.56;5042991;28;20084;-67
2023/12/17 11:34:36;;;;;;;0.70;0.70;;;;;;;10.15;45.14;98905.38;5042465;28;20056;-68
2023/12/17 11:37:04;;;;;;;0.70;0.70;;;;;;;10.22;43.95;98905.75;5043626;28;20055;-68